sensor_id;sensor_type;location;lat;lon;timestamp;temperature;humidity
8539;DHT22;4307;53.868;11.680;2023-09-08T00:01:56;19.00;99.90
8539;DHT22;4307;53.868;11.680;2023-09-08T00:04:24;18.90;99.90
8539;DHT22;4307;53.868;11.680;2023-09-08T00:06:51;18.80;99.90
8539;DHT22;4307;53.868;11.680;2023-09-08T00:09:18;18.80;99.90
8539;DHT22;4307;53.868;11.680;2023-09-08T00:11:45;18.70;99.90
8539;DHT22;4307;53.868;11.680;2023-09-08T00:14:11;18.60;99.90
8539;DHT22;4307;53.868;11.680;2023-09-08T00:16:38;18.50;99.90
8539;DHT22;4307;53.868;11.680;2023-09-08T00:19:08;18.50;99.90
8539;DHT22;4307;53.868;11.680;2023-09-08T00:21:36;18.40;99.90
8539;DHT22;4307;53.868;11.680;2023-09-08T00:24:04;18.40;99.90
8539;DHT22;4307;53.868;11.680;2023-09-08T00:26:32;18.40;99.90
8539;DHT22;4307;53.868;11.680;2023-09-08T00:28:59;18.40;99.90
8539;DHT22;4307;53.868;11.680;2023-09-08T00:31:26;18.40;99.90
8539;DHT22;4307;53.868;11.680;2023-09-08T00:33:52;18.40;99.90
8539;DHT22;4307;53.868;11.680;2023-09-08T00:36:19;18.40;99.90
8539;DHT22;4307;53.868;11.680;2023-09-08T00:38:47;18.30;99.90
8539;DHT22;4307;53.868;11.680;2023-09-08T00:41:14;18.30;99.90
8539;DHT22;4307;53.868;11.680;2023-09-08T00:43:41;18.30;99.90
8539;DHT22;4307;53.868;11.680;2023-09-08T00:46:08;18.30;99.90
8539;DHT22;4307;53.868;11.680;2023-09-08T00:48:36;18.40;99.90
8539;DHT22;4307;53.868;11.680;2023-09-08T00:51:04;18.40;99.90
8539;DHT22;4307;53.868;11.680;2023-09-08T00:53:33;18.40;99.90
8539;DHT22;4307;53.868;11.680;2023-09-08T00:56:01;18.40;99.90
8539;DHT22;4307;53.868;11.680;2023-09-08T00:58:28;18.50;99.90
8539;DHT22;4307;53.868;11.680;2023-09-08T01:00:55;18.50;99.90
8539;DHT22;4307;53.868;11.680;2023-09-08T01:03:22;18.50;99.90
8539;DHT22;4307;53.868;11.680;2023-09-08T01:05:50;18.50;99.90
8539;DHT22;4307;53.868;11.680;2023-09-08T01:08:17;18.50;99.90
8539;DHT22;4307;53.868;11.680;2023-09-08T01:10:45;18.50;99.90
8539;DHT22;4307;53.868;11.680;2023-09-08T01:13:14;18.60;99.90
8539;DHT22;4307;53.868;11.680;2023-09-08T01:15:41;18.60;99.90
8539;DHT22;4307;53.868;11.680;2023-09-08T01:18:08;18.60;99.90
8539;DHT22;4307;53.868;11.680;2023-09-08T01:20:44;18.60;99.90
8539;DHT22;4307;53.868;11.680;2023-09-08T01:23:21;18.60;99.90
8539;DHT22;4307;53.868;11.680;2023-09-08T01:25:54;18.60;99.90
8539;DHT22;4307;53.868;11.680;2023-09-08T01:28:21;18.60;99.90
8539;DHT22;4307;53.868;11.680;2023-09-08T01:30:49;18.60;99.90
8539;DHT22;4307;53.868;11.680;2023-09-08T01:33:17;18.50;99.90
8539;DHT22;4307;53.868;11.680;2023-09-08T01:35:45;18.50;99.90
8539;DHT22;4307;53.868;11.680;2023-09-08T01:38:11;18.40;99.90
8539;DHT22;4307;53.868;11.680;2023-09-08T01:40:38;18.50;99.90
8539;DHT22;4307;53.868;11.680;2023-09-08T01:43:06;18.40;99.90
8539;DHT22;4307;53.868;11.680;2023-09-08T01:45:33;18.40;99.90
8539;DHT22;4307;53.868;11.680;2023-09-08T01:47:59;18.30;99.90
8539;DHT22;4307;53.868;11.680;2023-09-08T01:50:26;18.30;99.90
8539;DHT22;4307;53.868;11.680;2023-09-08T01:52:53;18.20;99.90
8539;DHT22;4307;53.868;11.680;2023-09-08T01:55:19;18.20;99.90
8539;DHT22;4307;53.868;11.680;2023-09-08T01:57:46;18.10;99.90
8539;DHT22;4307;53.868;11.680;2023-09-08T02:00:15;18.10;99.90
8539;DHT22;4307;53.868;11.680;2023-09-08T02:02:42;18.00;99.90
8539;DHT22;4307;53.868;11.680;2023-09-08T02:05:08;17.80;99.90
8539;DHT22;4307;53.868;11.680;2023-09-08T02:07:35;17.70;99.90
8539;DHT22;4307;53.868;11.680;2023-09-08T02:10:02;17.70;99.90
8539;DHT22;4307;53.868;11.680;2023-09-08T02:12:29;17.60;99.90
8539;DHT22;4307;53.868;11.680;2023-09-08T02:14:55;17.50;99.90
8539;DHT22;4307;53.868;11.680;2023-09-08T02:17:24;17.50;99.90
8539;DHT22;4307;53.868;11.680;2023-09-08T02:19:50;17.40;99.90
8539;DHT22;4307;53.868;11.680;2023-09-08T02:22:17;17.40;99.90
8539;DHT22;4307;53.868;11.680;2023-09-08T02:24:44;17.30;99.90
8539;DHT22;4307;53.868;11.680;2023-09-08T02:27:11;17.20;99.90
8539;DHT22;4307;53.868;11.680;2023-09-08T02:29:37;17.20;99.90
8539;DHT22;4307;53.868;11.680;2023-09-08T02:32:05;17.10;99.90
8539;DHT22;4307;53.868;11.680;2023-09-08T02:34:35;17.10;99.90
8539;DHT22;4307;53.868;11.680;2023-09-08T02:37:03;17.10;99.90
8539;DHT22;4307;53.868;11.680;2023-09-08T02:39:30;17.00;99.90
8539;DHT22;4307;53.868;11.680;2023-09-08T02:41:56;17.00;99.90
8539;DHT22;4307;53.868;11.680;2023-09-08T02:44:23;17.00;99.90
8539;DHT22;4307;53.868;11.680;2023-09-08T02:46:50;16.90;99.90
8539;DHT22;4307;53.868;11.680;2023-09-08T02:49:17;17.00;99.90
8539;DHT22;4307;53.868;11.680;2023-09-08T02:51:45;16.90;99.90
8539;DHT22;4307;53.868;11.680;2023-09-08T02:54:12;16.90;99.90
8539;DHT22;4307;53.868;11.680;2023-09-08T02:56:39;16.90;99.90
8539;DHT22;4307;53.868;11.680;2023-09-08T02:59:05;16.90;99.90
8539;DHT22;4307;53.868;11.680;2023-09-08T03:01:32;16.80;99.90
8539;DHT22;4307;53.868;11.680;2023-09-08T03:03:59;16.80;99.90
8539;DHT22;4307;53.868;11.680;2023-09-08T03:06:26;16.80;99.90
8539;DHT22;4307;53.868;11.680;2023-09-08T03:08:54;16.70;99.90
8539;DHT22;4307;53.868;11.680;2023-09-08T03:11:20;16.70;99.90
8539;DHT22;4307;53.868;11.680;2023-09-08T03:13:47;16.70;99.90
8539;DHT22;4307;53.868;11.680;2023-09-08T03:16:14;16.70;99.90
8539;DHT22;4307;53.868;11.680;2023-09-08T03:18:41;16.60;99.90
8539;DHT22;4307;53.868;11.680;2023-09-08T03:21:08;16.60;99.90
8539;DHT22;4307;53.868;11.680;2023-09-08T03:23:37;16.50;99.90
8539;DHT22;4307;53.868;11.680;2023-09-08T03:26:06;16.50;99.90
8539;DHT22;4307;53.868;11.680;2023-09-08T03:28:34;16.50;99.90
8539;DHT22;4307;53.868;11.680;2023-09-08T03:31:01;16.40;99.90
8539;DHT22;4307;53.868;11.680;2023-09-08T03:33:28;16.40;99.90
8539;DHT22;4307;53.868;11.680;2023-09-08T03:35:54;16.30;99.90
8539;DHT22;4307;53.868;11.680;2023-09-08T03:38:21;16.30;99.90
8539;DHT22;4307;53.868;11.680;2023-09-08T03:40:48;16.20;99.90
8539;DHT22;4307;53.868;11.680;2023-09-08T03:43:17;16.20;99.90
8539;DHT22;4307;53.868;11.680;2023-09-08T03:45:43;16.20;99.90
8539;DHT22;4307;53.868;11.680;2023-09-08T03:48:10;16.20;99.90
8539;DHT22;4307;53.868;11.680;2023-09-08T03:50:37;16.20;99.90
8539;DHT22;4307;53.868;11.680;2023-09-08T03:53:04;16.10;99.90
8539;DHT22;4307;53.868;11.680;2023-09-08T03:55:30;16.10;99.90
8539;DHT22;4307;53.868;11.680;2023-09-08T03:57:57;16.10;99.90
8539;DHT22;4307;53.868;11.680;2023-09-08T04:00:25;16.10;99.90
8539;DHT22;4307;53.868;11.680;2023-09-08T04:02:52;16.10;99.90
8539;DHT22;4307;53.868;11.680;2023-09-08T04:05:22;16.10;99.90
8539;DHT22;4307;53.868;11.680;2023-09-08T04:07:49;16.10;99.90
8539;DHT22;4307;53.868;11.680;2023-09-08T04:10:16;16.00;99.90
8539;DHT22;4307;53.868;11.680;2023-09-08T04:12:42;16.00;99.90
8539;DHT22;4307;53.868;11.680;2023-09-08T04:15:10;16.00;99.90
8539;DHT22;4307;53.868;11.680;2023-09-08T04:17:38;16.00;99.90
8539;DHT22;4307;53.868;11.680;2023-09-08T04:20:06;16.00;99.90
8539;DHT22;4307;53.868;11.680;2023-09-08T04:22:33;15.90;99.90
8539;DHT22;4307;53.868;11.680;2023-09-08T04:25:00;15.90;99.90
8539;DHT22;4307;53.868;11.680;2023-09-08T04:27:27;15.90;99.90
8539;DHT22;4307;53.868;11.680;2023-09-08T04:29:53;15.90;99.90
8539;DHT22;4307;53.868;11.680;2023-09-08T04:32:20;15.90;99.90
8539;DHT22;4307;53.868;11.680;2023-09-08T04:34:48;15.90;99.90
8539;DHT22;4307;53.868;11.680;2023-09-08T04:37:15;15.80;99.90
8539;DHT22;4307;53.868;11.680;2023-09-08T04:39:42;15.80;99.90
8539;DHT22;4307;53.868;11.680;2023-09-08T04:42:09;15.80;99.90
8539;DHT22;4307;53.868;11.680;2023-09-08T04:44:36;15.80;99.90
8539;DHT22;4307;53.868;11.680;2023-09-08T04:47:03;15.80;99.90
8539;DHT22;4307;53.868;11.680;2023-09-08T04:49:30;15.70;99.90
8539;DHT22;4307;53.868;11.680;2023-09-08T04:51:58;15.70;99.90
8539;DHT22;4307;53.868;11.680;2023-09-08T04:54:25;15.70;99.90
8539;DHT22;4307;53.868;11.680;2023-09-08T04:56:52;15.70;99.90
8539;DHT22;4307;53.868;11.680;2023-09-08T04:59:19;15.60;99.90
8539;DHT22;4307;53.868;11.680;2023-09-08T05:01:46;15.70;99.90
8539;DHT22;4307;53.868;11.680;2023-09-08T05:04:12;15.70;99.90
8539;DHT22;4307;53.868;11.680;2023-09-08T05:06:39;15.70;99.90
8539;DHT22;4307;53.868;11.680;2023-09-08T05:09:07;15.70;99.90
8539;DHT22;4307;53.868;11.680;2023-09-08T05:11:34;15.80;99.90
8539;DHT22;4307;53.868;11.680;2023-09-08T05:14:01;15.80;99.90
8539;DHT22;4307;53.868;11.680;2023-09-08T05:16:28;15.80;99.90
8539;DHT22;4307;53.868;11.680;2023-09-08T05:19:05;15.80;99.90
8539;DHT22;4307;53.868;11.680;2023-09-08T05:21:32;15.90;99.90
8539;DHT22;4307;53.868;11.680;2023-09-08T05:23:58;15.90;99.90
8539;DHT22;4307;53.868;11.680;2023-09-08T05:26:26;16.00;99.90
8539;DHT22;4307;53.868;11.680;2023-09-08T05:28:53;16.10;99.90
8539;DHT22;4307;53.868;11.680;2023-09-08T05:31:20;16.10;99.90
8539;DHT22;4307;53.868;11.680;2023-09-08T05:33:47;16.20;99.90
8539;DHT22;4307;53.868;11.680;2023-09-08T05:36:13;16.30;99.90
8539;DHT22;4307;53.868;11.680;2023-09-08T05:38:40;16.30;99.90
8539;DHT22;4307;53.868;11.680;2023-09-08T05:41:07;16.40;99.90
8539;DHT22;4307;53.868;11.680;2023-09-08T05:43:35;16.50;99.90
8539;DHT22;4307;53.868;11.680;2023-09-08T05:46:02;16.60;99.90
8539;DHT22;4307;53.868;11.680;2023-09-08T05:48:29;16.60;99.90
8539;DHT22;4307;53.868;11.680;2023-09-08T05:50:56;16.70;99.90
8539;DHT22;4307;53.868;11.680;2023-09-08T05:53:22;16.80;99.90
8539;DHT22;4307;53.868;11.680;2023-09-08T05:55:49;16.90;99.90
8539;DHT22;4307;53.868;11.680;2023-09-08T05:58:16;17.00;99.90
8539;DHT22;4307;53.868;11.680;2023-09-08T06:00:44;17.00;99.90
8539;DHT22;4307;53.868;11.680;2023-09-08T06:03:11;17.10;99.90
8539;DHT22;4307;53.868;11.680;2023-09-08T06:05:38;17.30;99.90
8539;DHT22;4307;53.868;11.680;2023-09-08T06:08:05;17.50;99.90
8539;DHT22;4307;53.868;11.680;2023-09-08T06:10:32;17.60;99.90
8539;DHT22;4307;53.868;11.680;2023-09-08T06:12:59;17.90;99.90
8539;DHT22;4307;53.868;11.680;2023-09-08T06:15:27;18.30;99.90
8539;DHT22;4307;53.868;11.680;2023-09-08T06:17:55;18.80;99.90
8539;DHT22;4307;53.868;11.680;2023-09-08T06:20:21;19.20;99.90
8539;DHT22;4307;53.868;11.680;2023-09-08T06:22:49;19.70;99.90
8539;DHT22;4307;53.868;11.680;2023-09-08T06:25:16;20.20;99.90
8539;DHT22;4307;53.868;11.680;2023-09-08T06:27:43;20.60;99.90
8539;DHT22;4307;53.868;11.680;2023-09-08T06:30:10;21.10;99.90
8539;DHT22;4307;53.868;11.680;2023-09-08T06:32:39;21.60;99.90
8539;DHT22;4307;53.868;11.680;2023-09-08T06:35:07;22.10;99.90
8539;DHT22;4307;53.868;11.680;2023-09-08T06:37:35;22.60;99.90
8539;DHT22;4307;53.868;11.680;2023-09-08T06:40:03;23.00;99.90
8539;DHT22;4307;53.868;11.680;2023-09-08T06:42:30;23.30;99.90
8539;DHT22;4307;53.868;11.680;2023-09-08T06:44:57;23.80;99.90
8539;DHT22;4307;53.868;11.680;2023-09-08T06:47:23;24.20;99.90
8539;DHT22;4307;53.868;11.680;2023-09-08T06:49:50;24.40;99.90
8539;DHT22;4307;53.868;11.680;2023-09-08T06:52:18;24.60;99.90
8539;DHT22;4307;53.868;11.680;2023-09-08T06:54:45;24.70;99.90
8539;DHT22;4307;53.868;11.680;2023-09-08T06:57:12;24.70;99.90
8539;DHT22;4307;53.868;11.680;2023-09-08T06:59:38;24.70;99.90
8539;DHT22;4307;53.868;11.680;2023-09-08T07:02:06;24.70;99.90
8539;DHT22;4307;53.868;11.680;2023-09-08T07:04:33;24.60;99.90
8539;DHT22;4307;53.868;11.680;2023-09-08T07:07:00;24.60;99.90
8539;DHT22;4307;53.868;11.680;2023-09-08T07:09:30;24.70;99.90
8539;DHT22;4307;53.868;11.680;2023-09-08T07:11:57;24.70;99.90
8539;DHT22;4307;53.868;11.680;2023-09-08T07:14:23;24.70;99.90
8539;DHT22;4307;53.868;11.680;2023-09-08T07:16:50;24.70;99.90
8539;DHT22;4307;53.868;11.680;2023-09-08T07:19:17;24.80;99.90
8539;DHT22;4307;53.868;11.680;2023-09-08T07:21:43;24.70;99.90
8539;DHT22;4307;53.868;11.680;2023-09-08T07:24:10;24.70;99.90
8539;DHT22;4307;53.868;11.680;2023-09-08T07:26:38;24.70;99.90
8539;DHT22;4307;53.868;11.680;2023-09-08T07:29:05;24.60;99.90
8539;DHT22;4307;53.868;11.680;2023-09-08T07:31:32;24.70;99.90
8539;DHT22;4307;53.868;11.680;2023-09-08T07:33:59;24.60;99.70
8539;DHT22;4307;53.868;11.680;2023-09-08T07:36:25;24.70;99.50
8539;DHT22;4307;53.868;11.680;2023-09-08T07:38:52;24.70;99.50
8539;DHT22;4307;53.868;11.680;2023-09-08T07:41:18;24.80;99.30
8539;DHT22;4307;53.868;11.680;2023-09-08T07:43:47;24.80;99.10
8539;DHT22;4307;53.868;11.680;2023-09-08T07:46:13;25.00;99.00
8539;DHT22;4307;53.868;11.680;2023-09-08T07:48:40;25.10;99.10
8539;DHT22;4307;53.868;11.680;2023-09-08T07:51:07;25.20;98.90
8539;DHT22;4307;53.868;11.680;2023-09-08T07:53:33;25.40;98.80
8539;DHT22;4307;53.868;11.680;2023-09-08T07:56:00;25.50;98.70
8539;DHT22;4307;53.868;11.680;2023-09-08T07:58:27;25.60;98.60
8539;DHT22;4307;53.868;11.680;2023-09-08T08:00:55;25.70;98.30
8539;DHT22;4307;53.868;11.680;2023-09-08T08:03:22;25.80;98.00
8539;DHT22;4307;53.868;11.680;2023-09-08T08:05:49;25.90;97.90
8539;DHT22;4307;53.868;11.680;2023-09-08T08:08:16;26.20;97.70
8539;DHT22;4307;53.868;11.680;2023-09-08T08:10:43;26.30;97.50
8539;DHT22;4307;53.868;11.680;2023-09-08T08:13:09;26.40;97.20
8539;DHT22;4307;53.868;11.680;2023-09-08T08:15:37;26.40;97.20
8539;DHT22;4307;53.868;11.680;2023-09-08T08:18:06;26.50;97.20
8539;DHT22;4307;53.868;11.680;2023-09-08T08:20:35;26.70;97.20
8539;DHT22;4307;53.868;11.680;2023-09-08T08:23:02;27.00;97.00
8539;DHT22;4307;53.868;11.680;2023-09-08T08:25:29;27.20;96.60
8539;DHT22;4307;53.868;11.680;2023-09-08T08:27:56;27.40;96.40
8539;DHT22;4307;53.868;11.680;2023-09-08T08:30:23;27.60;96.30
8539;DHT22;4307;53.868;11.680;2023-09-08T08:32:50;27.70;95.90
8539;DHT22;4307;53.868;11.680;2023-09-08T08:35:20;27.80;95.60
8539;DHT22;4307;53.868;11.680;2023-09-08T08:37:46;27.80;95.30
8539;DHT22;4307;53.868;11.680;2023-09-08T08:40:13;27.80;95.40
8539;DHT22;4307;53.868;11.680;2023-09-08T08:42:41;27.90;95.20
8539;DHT22;4307;53.868;11.680;2023-09-08T08:45:10;28.10;95.10
8539;DHT22;4307;53.868;11.680;2023-09-08T08:47:37;28.30;94.80
8539;DHT22;4307;53.868;11.680;2023-09-08T08:50:08;28.40;94.60
8539;DHT22;4307;53.868;11.680;2023-09-08T08:52:38;28.50;94.50
8539;DHT22;4307;53.868;11.680;2023-09-08T08:55:05;28.50;94.30
8539;DHT22;4307;53.868;11.680;2023-09-08T08:57:33;28.50;94.00
8539;DHT22;4307;53.868;11.680;2023-09-08T09:00:01;28.40;94.30
8539;DHT22;4307;53.868;11.680;2023-09-08T09:02:33;28.40;94.20
8539;DHT22;4307;53.868;11.680;2023-09-08T09:05:04;28.80;94.10
8539;DHT22;4307;53.868;11.680;2023-09-08T09:07:31;29.20;93.60
8539;DHT22;4307;53.868;11.680;2023-09-08T09:10:00;29.20;93.30
8539;DHT22;4307;53.868;11.680;2023-09-08T09:12:27;29.30;93.00
8539;DHT22;4307;53.868;11.680;2023-09-08T09:14:54;29.20;92.90
8539;DHT22;4307;53.868;11.680;2023-09-08T09:17:21;29.20;93.00
8539;DHT22;4307;53.868;11.680;2023-09-08T09:19:47;29.20;92.80
8539;DHT22;4307;53.868;11.680;2023-09-08T09:22:14;29.10;92.90
8539;DHT22;4307;53.868;11.680;2023-09-08T09:24:41;29.10;92.70
8539;DHT22;4307;53.868;11.680;2023-09-08T09:27:11;29.20;92.80
8539;DHT22;4307;53.868;11.680;2023-09-08T09:29:44;29.40;92.80
8539;DHT22;4307;53.868;11.680;2023-09-08T09:32:12;29.40;92.20
8539;DHT22;4307;53.868;11.680;2023-09-08T09:34:47;29.40;92.60
8539;DHT22;4307;53.868;11.680;2023-09-08T09:37:14;29.50;92.50
8539;DHT22;4307;53.868;11.680;2023-09-08T09:39:41;29.60;92.40
8539;DHT22;4307;53.868;11.680;2023-09-08T09:42:07;29.70;92.00
8539;DHT22;4307;53.868;11.680;2023-09-08T09:44:35;29.70;91.70
8539;DHT22;4307;53.868;11.680;2023-09-08T09:47:03;29.60;91.40
8539;DHT22;4307;53.868;11.680;2023-09-08T09:49:30;29.50;91.30
8539;DHT22;4307;53.868;11.680;2023-09-08T09:51:58;29.50;91.30
8539;DHT22;4307;53.868;11.680;2023-09-08T09:54:25;29.50;91.20
8539;DHT22;4307;53.868;11.680;2023-09-08T09:56:52;29.70;91.10
8539;DHT22;4307;53.868;11.680;2023-09-08T09:59:19;29.70;90.80
8539;DHT22;4307;53.868;11.680;2023-09-08T10:01:50;29.80;90.80
8539;DHT22;4307;53.868;11.680;2023-09-08T10:04:17;30.00;90.50
8539;DHT22;4307;53.868;11.680;2023-09-08T10:06:45;30.10;90.50
8539;DHT22;4307;53.868;11.680;2023-09-08T10:09:12;30.20;90.20
8539;DHT22;4307;53.868;11.680;2023-09-08T10:11:43;30.40;90.30
8539;DHT22;4307;53.868;11.680;2023-09-08T10:14:11;30.60;90.00
8539;DHT22;4307;53.868;11.680;2023-09-08T10:16:39;30.80;89.50
8539;DHT22;4307;53.868;11.680;2023-09-08T10:19:09;31.00;89.30
8539;DHT22;4307;53.868;11.680;2023-09-08T10:21:39;31.20;88.00
8539;DHT22;4307;53.868;11.680;2023-09-08T10:24:11;31.20;87.10
8539;DHT22;4307;53.868;11.680;2023-09-08T10:26:44;31.30;86.80
8539;DHT22;4307;53.868;11.680;2023-09-08T10:29:12;31.60;86.70
8539;DHT22;4307;53.868;11.680;2023-09-08T10:31:39;31.80;86.60
8539;DHT22;4307;53.868;11.680;2023-09-08T10:34:08;32.10;86.20
8539;DHT22;4307;53.868;11.680;2023-09-08T10:36:35;32.30;85.10
8539;DHT22;4307;53.868;11.680;2023-09-08T10:39:29;32.50;84.20
8539;DHT22;4307;53.868;11.680;2023-09-08T10:42:21;32.70;82.70
8539;DHT22;4307;53.868;11.680;2023-09-08T10:44:59;32.60;82.00
8539;DHT22;4307;53.868;11.680;2023-09-08T10:47:39;32.50;81.80
8539;DHT22;4307;53.868;11.680;2023-09-08T10:50:16;32.50;81.70
8539;DHT22;4307;53.868;11.680;2023-09-08T10:52:42;32.60;80.50
8539;DHT22;4307;53.868;11.680;2023-09-08T10:55:11;32.60;80.40
8539;DHT22;4307;53.868;11.680;2023-09-08T10:57:37;32.70;79.30
8539;DHT22;4307;53.868;11.680;2023-09-08T11:00:05;32.60;78.60
8539;DHT22;4307;53.868;11.680;2023-09-08T11:02:38;32.80;78.70
8539;DHT22;4307;53.868;11.680;2023-09-08T11:05:09;33.00;78.60
8539;DHT22;4307;53.868;11.680;2023-09-08T11:07:37;33.10;77.70
8539;DHT22;4307;53.868;11.680;2023-09-08T11:10:04;33.10;77.00
8539;DHT22;4307;53.868;11.680;2023-09-08T11:12:32;32.90;76.60
8539;DHT22;4307;53.868;11.680;2023-09-08T11:14:59;32.80;76.40
8539;DHT22;4307;53.868;11.680;2023-09-08T11:17:27;32.90;76.30
8539;DHT22;4307;53.868;11.680;2023-09-08T11:19:54;32.90;76.20
8539;DHT22;4307;53.868;11.680;2023-09-08T11:22:24;33.00;75.10
8539;DHT22;4307;53.868;11.680;2023-09-08T11:24:51;32.70;74.20
8539;DHT22;4307;53.868;11.680;2023-09-08T11:27:19;32.40;73.50
8539;DHT22;4307;53.868;11.680;2023-09-08T11:29:47;32.00;73.60
8539;DHT22;4307;53.868;11.680;2023-09-08T11:32:14;31.80;74.30
8539;DHT22;4307;53.868;11.680;2023-09-08T11:34:40;31.80;74.90
8539;DHT22;4307;53.868;11.680;2023-09-08T11:37:10;31.80;75.70
8539;DHT22;4307;53.868;11.680;2023-09-08T11:39:40;31.90;74.40
8539;DHT22;4307;53.868;11.680;2023-09-08T11:42:07;31.90;73.90
8539;DHT22;4307;53.868;11.680;2023-09-08T11:44:35;31.90;73.50
8539;DHT22;4307;53.868;11.680;2023-09-08T11:47:02;31.90;73.40
8539;DHT22;4307;53.868;11.680;2023-09-08T11:49:33;31.80;73.00
8539;DHT22;4307;53.868;11.680;2023-09-08T11:52:00;31.70;72.80
8539;DHT22;4307;53.868;11.680;2023-09-08T11:54:28;31.70;73.10
8539;DHT22;4307;53.868;11.680;2023-09-08T11:56:56;31.80;73.20
8539;DHT22;4307;53.868;11.680;2023-09-08T11:59:23;31.80;72.50
8539;DHT22;4307;53.868;11.680;2023-09-08T12:01:51;31.80;72.80
8539;DHT22;4307;53.868;11.680;2023-09-08T12:04:18;32.00;73.00
8539;DHT22;4307;53.868;11.680;2023-09-08T12:06:45;32.10;73.00
8539;DHT22;4307;53.868;11.680;2023-09-08T12:09:12;32.30;72.70
8539;DHT22;4307;53.868;11.680;2023-09-08T12:11:40;32.40;72.10
8539;DHT22;4307;53.868;11.680;2023-09-08T12:14:10;32.60;71.80
8539;DHT22;4307;53.868;11.680;2023-09-08T12:16:38;32.60;70.90
8539;DHT22;4307;53.868;11.680;2023-09-08T12:19:05;32.60;70.30
8539;DHT22;4307;53.868;11.680;2023-09-08T12:21:32;32.60;70.60
8539;DHT22;4307;53.868;11.680;2023-09-08T12:23:58;32.70;70.20
8539;DHT22;4307;53.868;11.680;2023-09-08T12:26:25;32.80;69.10
8539;DHT22;4307;53.868;11.680;2023-09-08T12:28:52;32.60;69.00
8539;DHT22;4307;53.868;11.680;2023-09-08T12:31:20;32.60;70.20
8539;DHT22;4307;53.868;11.680;2023-09-08T12:33:47;32.70;69.90
8539;DHT22;4307;53.868;11.680;2023-09-08T12:36:15;32.80;69.70
8539;DHT22;4307;53.868;11.680;2023-09-08T12:38:47;32.90;69.10
8539;DHT22;4307;53.868;11.680;2023-09-08T12:41:14;32.90;68.80
8539;DHT22;4307;53.868;11.680;2023-09-08T12:43:41;33.00;68.70
8539;DHT22;4307;53.868;11.680;2023-09-08T12:46:08;33.10;68.60
8539;DHT22;4307;53.868;11.680;2023-09-08T12:48:36;33.20;67.90
8539;DHT22;4307;53.868;11.680;2023-09-08T12:51:02;33.20;67.30
8539;DHT22;4307;53.868;11.680;2023-09-08T12:53:33;33.20;67.00
8539;DHT22;4307;53.868;11.680;2023-09-08T12:56:01;33.30;66.10
8539;DHT22;4307;53.868;11.680;2023-09-08T12:58:27;33.30;66.10
8539;DHT22;4307;53.868;11.680;2023-09-08T13:00:54;33.40;66.10
8539;DHT22;4307;53.868;11.680;2023-09-08T13:03:21;33.80;65.90
8539;DHT22;4307;53.868;11.680;2023-09-08T13:05:49;34.00;65.20
8539;DHT22;4307;53.868;11.680;2023-09-08T13:08:16;34.30;64.40
8539;DHT22;4307;53.868;11.680;2023-09-08T13:10:43;34.70;64.10
8539;DHT22;4307;53.868;11.680;2023-09-08T13:13:09;35.20;63.70
8539;DHT22;4307;53.868;11.680;2023-09-08T13:15:36;35.50;62.50
8539;DHT22;4307;53.868;11.680;2023-09-08T13:18:03;35.50;61.90
8539;DHT22;4307;53.868;11.680;2023-09-08T13:20:29;35.50;60.00
8539;DHT22;4307;53.868;11.680;2023-09-08T13:22:57;35.60;59.30
8539;DHT22;4307;53.868;11.680;2023-09-08T13:25:24;35.60;58.30
8539;DHT22;4307;53.868;11.680;2023-09-08T13:27:51;35.60;57.80
8539;DHT22;4307;53.868;11.680;2023-09-08T13:30:17;35.50;57.60
8539;DHT22;4307;53.868;11.680;2023-09-08T13:32:47;35.70;56.90
8539;DHT22;4307;53.868;11.680;2023-09-08T13:35:13;35.80;57.00
8539;DHT22;4307;53.868;11.680;2023-09-08T13:37:40;36.00;56.00
8539;DHT22;4307;53.868;11.680;2023-09-08T13:40:09;36.00;54.20
8539;DHT22;4307;53.868;11.680;2023-09-08T13:42:36;36.00;53.60
8539;DHT22;4307;53.868;11.680;2023-09-08T13:45:03;36.10;53.00
8539;DHT22;4307;53.868;11.680;2023-09-08T13:47:30;36.20;53.00
8539;DHT22;4307;53.868;11.680;2023-09-08T13:49:57;36.40;52.30
8539;DHT22;4307;53.868;11.680;2023-09-08T13:52:23;36.20;52.40
8539;DHT22;4307;53.868;11.680;2023-09-08T13:54:50;35.80;52.40
8539;DHT22;4307;53.868;11.680;2023-09-08T13:57:18;35.30;52.50
8539;DHT22;4307;53.868;11.680;2023-09-08T13:59:46;34.70;52.60
8539;DHT22;4307;53.868;11.680;2023-09-08T14:02:13;34.20;53.20
8539;DHT22;4307;53.868;11.680;2023-09-08T14:04:39;33.80;53.40
8539;DHT22;4307;53.868;11.680;2023-09-08T14:07:07;33.40;53.90
8539;DHT22;4307;53.868;11.680;2023-09-08T14:09:34;33.10;54.00
8539;DHT22;4307;53.868;11.680;2023-09-08T14:12:01;32.80;54.80
8539;DHT22;4307;53.868;11.680;2023-09-08T14:14:29;32.70;55.60
8539;DHT22;4307;53.868;11.680;2023-09-08T14:16:56;32.60;55.70
8539;DHT22;4307;53.868;11.680;2023-09-08T14:19:22;32.40;55.70
8539;DHT22;4307;53.868;11.680;2023-09-08T14:21:49;32.30;55.90
8539;DHT22;4307;53.868;11.680;2023-09-08T14:24:16;32.20;56.10
8539;DHT22;4307;53.868;11.680;2023-09-08T14:26:43;32.00;56.50
8539;DHT22;4307;53.868;11.680;2023-09-08T14:29:10;31.90;56.70
8539;DHT22;4307;53.868;11.680;2023-09-08T14:31:38;31.80;56.80
8539;DHT22;4307;53.868;11.680;2023-09-08T14:34:05;31.70;57.00
8539;DHT22;4307;53.868;11.680;2023-09-08T14:36:31;31.70;57.10
8539;DHT22;4307;53.868;11.680;2023-09-08T14:38:58;31.60;57.20
8539;DHT22;4307;53.868;11.680;2023-09-08T14:41:24;31.60;57.20
8539;DHT22;4307;53.868;11.680;2023-09-08T14:43:51;31.60;57.40
8539;DHT22;4307;53.868;11.680;2023-09-08T14:46:18;31.60;57.10
8539;DHT22;4307;53.868;11.680;2023-09-08T14:48:46;31.60;57.20
8539;DHT22;4307;53.868;11.680;2023-09-08T14:51:13;31.50;57.50
8539;DHT22;4307;53.868;11.680;2023-09-08T14:53:39;31.40;57.80
8539;DHT22;4307;53.868;11.680;2023-09-08T14:56:06;31.40;58.10
8539;DHT22;4307;53.868;11.680;2023-09-08T14:58:33;31.30;58.30
8539;DHT22;4307;53.868;11.680;2023-09-08T15:01:00;31.20;58.10
8539;DHT22;4307;53.868;11.680;2023-09-08T15:03:30;31.20;58.20
8539;DHT22;4307;53.868;11.680;2023-09-08T15:05:58;31.20;58.30
8539;DHT22;4307;53.868;11.680;2023-09-08T15:08:25;31.10;58.10
8539;DHT22;4307;53.868;11.680;2023-09-08T15:10:52;31.10;58.30
8539;DHT22;4307;53.868;11.680;2023-09-08T15:13:19;31.00;58.20
8539;DHT22;4307;53.868;11.680;2023-09-08T15:15:46;31.00;58.30
8539;DHT22;4307;53.868;11.680;2023-09-08T15:18:13;31.00;58.50
8539;DHT22;4307;53.868;11.680;2023-09-08T15:20:39;30.90;58.90
8539;DHT22;4307;53.868;11.680;2023-09-08T15:23:08;31.00;59.50
8539;DHT22;4307;53.868;11.680;2023-09-08T15:25:34;31.00;58.90
8539;DHT22;4307;53.868;11.680;2023-09-08T15:28:01;31.00;58.80
8539;DHT22;4307;53.868;11.680;2023-09-08T15:30:28;31.00;58.70
8539;DHT22;4307;53.868;11.680;2023-09-08T15:32:54;31.00;58.40
8539;DHT22;4307;53.868;11.680;2023-09-08T15:35:22;30.90;58.30
8539;DHT22;4307;53.868;11.680;2023-09-08T15:37:48;30.90;58.30
8539;DHT22;4307;53.868;11.680;2023-09-08T15:40:16;30.90;58.20
8539;DHT22;4307;53.868;11.680;2023-09-08T15:42:43;30.90;58.10
8539;DHT22;4307;53.868;11.680;2023-09-08T15:45:10;30.80;58.00
8539;DHT22;4307;53.868;11.680;2023-09-08T15:47:36;30.80;57.50